< < Back
Terminal Aerodrome Forecast


Current Version              Previous Versions:   1  2  3  4  5  6  7  8  9  

Terminal Aerodrome Forecast

084
FTUS44 KBMX 042326
TAFANB
TAF
KANB 042326Z 0500/0524 VRB04KT P6SM FEW050
     FM051500 24006KT P6SM FEW050=

Latest METAR

196
SAUS70 KWBC 050800 RRK
MTRANB
METAR KANB 050753Z AUTO 00000KT 10SM CLR 21/19 A3001 RMK AO2 SLP152
T02110194


USA.gov is the U.S. government's official web portal to all federal, state and local government web resources and services.